createdAt,value
2019-03-06T00:01:37.901Z,83.03
2019-03-06T00:04:04.631Z,83.03
2019-03-06T00:06:31.389Z,83.01
2019-03-06T00:08:58.535Z,82.81
2019-03-06T00:11:27.736Z,82.84
2019-03-06T00:13:54.465Z,83.11
2019-03-06T00:16:21.188Z,82.99
2019-03-06T00:18:47.919Z,83.74
2019-03-06T00:21:18.273Z,83.67
2019-03-06T00:23:45.015Z,83.67
2019-03-06T00:26:11.761Z,83.85
2019-03-06T00:28:38.496Z,83.94
2019-03-06T00:31:05.209Z,84.24
2019-03-06T00:33:31.973Z,83.92
2019-03-06T00:35:59.581Z,83.71
2019-03-06T00:38:26.329Z,84.29
2019-03-06T00:40:59.695Z,83.87
2019-03-06T00:43:26.421Z,83.61
2019-03-06T00:45:56.159Z,84.16
2019-03-06T00:48:22.915Z,83.59
2019-03-06T00:50:49.699Z,83.74
2019-03-06T00:53:17.353Z,83.42
2019-03-06T00:55:44.402Z,83.49
2019-03-06T00:58:11.174Z,83.01
2019-03-06T01:00:37.935Z,82.81
2019-03-06T01:03:04.831Z,83.28
2019-03-06T01:05:31.587Z,83.47
2019-03-06T01:07:58.340Z,83.43
2019-03-06T01:10:25.094Z,83.44
2019-03-06T01:12:54.787Z,84.18
2019-03-06T01:15:21.535Z,83.88
2019-03-06T01:17:48.681Z,84.17
2019-03-06T01:20:15.558Z,84.29
2019-03-06T01:22:42.317Z,84.08
2019-03-06T01:25:09.195Z,83.59
2019-03-06T01:27:36.021Z,83.54
2019-03-06T01:30:03.438Z,83.91
2019-03-06T01:32:32.488Z,83.93
2019-03-06T01:35:19.093Z,83.82
2019-03-06T01:38:04.617Z,83.51
2019-03-06T01:40:49.525Z,83.50
2019-03-06T01:43:20.859Z,83.60
2019-03-06T01:45:47.599Z,83.71
2019-03-06T01:48:14.542Z,84.01
2019-03-06T01:50:41.263Z,84.35
2019-03-06T01:53:08.056Z,84.23
2019-03-06T01:55:34.884Z,85.30
2019-03-06T01:58:01.622Z,84.91
2019-03-06T02:00:28.472Z,83.97
2019-03-06T02:05:35.727Z,84.16
2019-03-06T02:08:02.460Z,85.24
2019-03-06T02:10:29.401Z,84.43
2019-03-06T02:12:56.153Z,84.37
2019-03-06T02:15:22.887Z,84.38
2019-03-06T02:17:49.624Z,84.77
2019-03-06T02:20:16.552Z,85.73
2019-03-06T02:22:43.310Z,85.33
2019-03-06T02:25:10.051Z,85.75
2019-03-06T02:27:36.991Z,85.56
2019-03-06T02:30:06.812Z,85.05
2019-03-06T02:32:33.634Z,84.60
2019-03-06T02:35:00.527Z,84.74
2019-03-06T02:37:27.317Z,84.31
2019-03-06T02:39:54.246Z,83.52
2019-03-06T02:42:20.990Z,83.28
2019-03-06T02:44:47.738Z,83.18
2019-03-06T02:47:14.458Z,84.12
2019-03-06T02:49:42.294Z,83.78
2019-03-06T02:52:09.780Z,84.31
2019-03-06T02:54:36.561Z,83.80
2019-03-06T02:57:04.485Z,84.12
2019-03-06T02:59:53.794Z,84.64
2019-03-06T03:02:43.134Z,85.44
2019-03-06T03:05:29.023Z,85.01
2019-03-06T03:07:56.001Z,84.54
2019-03-06T03:10:23.225Z,83.85
2019-03-06T03:12:49.950Z,83.95
2019-03-06T03:15:19.306Z,83.54
2019-03-06T03:17:46.025Z,83.52
2019-03-06T03:20:12.740Z,83.64
2019-03-06T03:22:39.496Z,83.65
2019-03-06T03:25:06.577Z,83.65
2019-03-06T03:27:33.345Z,83.54
2019-03-06T03:30:00.653Z,83.58
2019-03-06T03:32:27.648Z,83.21
2019-03-06T03:34:54.412Z,83.36
2019-03-06T03:37:21.170Z,83.27
2019-03-06T03:39:48.141Z,82.70
2019-03-06T03:42:14.918Z,83.41
2019-03-06T03:44:42.035Z,83.56
2019-03-06T03:47:08.912Z,83.31
2019-03-06T03:49:35.705Z,83.58
2019-03-06T03:52:02.569Z,83.12
2019-03-06T03:54:29.606Z,83.18
2019-03-06T03:56:56.429Z,82.79
2019-03-06T03:59:25.899Z,82.18
2019-03-06T04:01:52.674Z,82.44
2019-03-06T04:04:21.756Z,81.76
2019-03-06T04:06:48.509Z,82.12
2019-03-06T04:09:15.254Z,82.66
2019-03-06T04:11:41.986Z,82.14
2019-03-06T04:14:08.716Z,82.33
2019-03-06T04:16:35.610Z,82.33
2019-03-06T04:19:02.442Z,82.21
2019-03-06T04:21:29.179Z,82.25
2019-03-06T04:23:56.031Z,82.94
2019-03-06T04:26:24.156Z,82.18
2019-03-06T04:28:51.277Z,82.18
2019-03-06T04:31:19.668Z,82.25
2019-03-06T04:33:46.431Z,82.20
2019-03-06T04:36:13.901Z,82.20
2019-03-06T04:38:40.635Z,81.97
2019-03-06T04:41:07.355Z,82.42
2019-03-06T04:43:34.202Z,82.42
2019-03-06T04:46:01.367Z,82.52
2019-03-06T04:48:28.106Z,82.65
2019-03-06T04:50:54.852Z,82.22
2019-03-06T04:53:21.552Z,81.77
2019-03-06T04:55:48.285Z,81.81
2019-03-06T04:58:15.013Z,82.40
2019-03-06T05:00:42.063Z,81.65
2019-03-06T05:03:08.792Z,81.65
2019-03-06T05:05:35.566Z,82.08
2019-03-06T05:08:02.291Z,81.75
2019-03-06T05:10:29.038Z,82.21
2019-03-06T05:12:55.769Z,82.75
2019-03-06T05:15:22.640Z,82.06
2019-03-06T05:18:00.046Z,81.81
2019-03-06T05:20:26.811Z,82.13
2019-03-06T05:22:54.037Z,82.24
2019-03-06T05:25:20.762Z,82.24
2019-03-06T05:27:47.506Z,82.35
2019-03-06T05:30:14.924Z,82.35
2019-03-06T05:32:41.747Z,81.87
2019-03-06T05:35:39.033Z,81.87
2019-03-06T05:38:16.466Z,81.42
2019-03-06T05:40:43.210Z,81.51
2019-03-06T05:43:09.948Z,80.50
2019-03-06T05:45:36.688Z,80.50
2019-03-06T05:48:03.531Z,81.16
2019-03-06T05:50:30.326Z,81.10
2019-03-06T05:52:57.118Z,80.82
2019-03-06T05:55:23.843Z,80.84
2019-03-06T05:57:50.588Z,80.84
2019-03-06T06:00:18.957Z,80.62
2019-03-06T06:02:45.707Z,80.81
2019-03-06T06:05:12.480Z,80.81
2019-03-06T06:07:39.333Z,80.65
2019-03-06T06:10:08.822Z,80.47
2019-03-06T06:12:35.580Z,79.65
2019-03-06T06:15:03.968Z,80.35
2019-03-06T06:17:30.820Z,80.35
2019-03-06T06:19:57.776Z,80.15
2019-03-06T06:22:43.001Z,80.18
2019-03-06T06:25:09.713Z,80.18
2019-03-06T06:27:36.442Z,80.33
2019-03-06T06:30:03.264Z,79.74
2019-03-06T06:32:30.083Z,79.64
2019-03-06T06:34:56.825Z,78.95
2019-03-06T06:37:23.678Z,79.07
2019-03-06T06:39:50.583Z,79.07
2019-03-06T06:42:17.314Z,78.05
2019-03-06T06:44:44.201Z,78.05
2019-03-06T06:47:11.084Z,77.95
2019-03-06T06:49:37.992Z,77.15
2019-03-06T06:52:23.428Z,77.15
2019-03-06T06:55:27.558Z,77.34
2019-03-06T06:58:31.564Z,76.98
2019-03-06T07:01:37.967Z,75.88
2019-03-06T07:05:12.026Z,75.88
2019-03-06T07:07:58.882Z,75.38
2019-03-06T07:10:36.775Z,74.87
2019-03-06T07:13:24.311Z,74.87
2019-03-06T07:16:24.643Z,74.33
2019-03-06T07:19:18.979Z,74.36
2019-03-06T07:21:56.718Z,73.88
2019-03-06T07:24:48.817Z,73.88
2019-03-06T07:27:26.971Z,74.01
2019-03-06T07:30:03.558Z,73.67
2019-03-06T07:32:52.475Z,74.01
2019-03-06T07:36:15.147Z,73.44
2019-03-06T07:38:43.028Z,73.59
2019-03-06T07:41:27.775Z,73.91
2019-03-06T07:44:15.083Z,73.58
2019-03-06T07:47:00.327Z,72.76
2019-03-06T07:49:44.436Z,72.60
2019-03-06T07:52:18.738Z,72.43
2019-03-06T07:55:17.114Z,72.04
2019-03-06T07:58:20.492Z,71.53
2019-03-06T08:00:47.538Z,71.48
2019-03-06T08:03:22.283Z,70.97
2019-03-06T08:05:49.614Z,70.68
2019-03-06T08:08:16.331Z,70.26
2019-03-06T08:10:43.100Z,69.89
2019-03-06T08:13:34.937Z,69.92
2019-03-06T08:16:09.387Z,69.72
2019-03-06T08:19:01.730Z,69.80
2019-03-06T08:21:42.545Z,69.18
2019-03-06T08:24:16.739Z,69.37
2019-03-06T08:26:43.569Z,69.37
2019-03-06T08:29:10.367Z,68.82
2019-03-06T08:31:58.623Z,68.25
2019-03-06T08:34:25.357Z,68.11
2019-03-06T08:36:52.208Z,68.04
2019-03-06T08:39:22.733Z,66.72
2019-03-06T08:41:49.476Z,66.28
2019-03-06T08:44:16.617Z,65.78
2019-03-06T08:47:12.289Z,65.19
2019-03-06T08:50:13.959Z,65.53
2019-03-06T08:52:51.896Z,65.00
2019-03-06T08:55:28.197Z,64.62
2019-03-06T08:58:07.336Z,64.19
2019-03-06T09:01:08.885Z,64.42
2019-03-06T09:03:58.119Z,61.25
2019-03-06T09:06:39.815Z,60.85
2019-03-06T09:09:26.503Z,61.58
2019-03-06T09:12:09.695Z,60.95
2019-03-06T09:14:56.373Z,59.49
2019-03-06T09:17:45.495Z,57.23
2019-03-06T09:20:37.175Z,54.65
2019-03-06T09:23:29.340Z,54.19
2019-03-06T09:26:16.711Z,52.74
2019-03-06T09:28:50.008Z,53.82
2019-03-06T09:31:23.297Z,51.34
2019-03-06T09:34:09.781Z,52.38
2019-03-06T09:36:59.059Z,50.86
2019-03-06T09:39:54.478Z,50.58
2019-03-06T09:42:32.991Z,49.03
2019-03-06T09:45:09.193Z,47.40
2019-03-06T09:47:46.051Z,47.23
2019-03-06T09:50:22.933Z,47.21
2019-03-06T09:53:13.284Z,45.54
2019-03-06T09:56:11.633Z,46.23
2019-03-06T09:59:17.731Z,46.29
2019-03-06T10:02:06.753Z,45.40
2019-03-06T10:04:36.530Z,45.09
2019-03-06T10:07:22.936Z,44.69
2019-03-06T10:10:10.304Z,44.92
2019-03-06T10:13:03.498Z,43.71
2019-03-06T10:15:55.891Z,44.06
2019-03-06T10:18:27.934Z,44.40
2019-03-06T10:20:54.875Z,43.98
2019-03-06T10:23:21.649Z,44.13
2019-03-06T10:25:49.522Z,43.58
2019-03-06T10:28:16.265Z,44.07
2019-03-06T10:30:43.014Z,44.29
2019-03-06T10:33:09.743Z,43.16
2019-03-06T10:35:36.487Z,42.27
2019-03-06T10:38:03.222Z,42.33
2019-03-06T10:40:30.605Z,41.92
2019-03-06T10:42:59.531Z,41.04
2019-03-06T10:45:27.674Z,41.54
2019-03-06T10:47:54.821Z,40.09
2019-03-06T10:50:27.360Z,41.07
2019-03-06T10:52:53.018Z,40.08
2019-03-06T10:55:19.885Z,39.42
2019-03-06T10:57:48.813Z,39.78
2019-03-06T11:00:19.791Z,39.75
2019-03-06T11:02:47.232Z,38.75
2019-03-06T11:05:23.552Z,39.34
2019-03-06T11:07:53.147Z,39.31
2019-03-06T11:10:23.714Z,40.23
2019-03-06T11:12:49.041Z,38.65
2019-03-06T11:15:16.435Z,38.97
2019-03-06T11:17:43.382Z,39.26
2019-03-06T11:20:12.475Z,39.25
2019-03-06T11:22:39.359Z,39.28
2019-03-06T11:25:06.562Z,39.87
2019-03-06T11:27:33.355Z,39.80
2019-03-06T11:30:02.835Z,39.07
2019-03-06T11:32:29.970Z,39.28
2019-03-06T11:34:56.796Z,39.63
2019-03-06T11:37:23.503Z,39.04
2019-03-06T11:39:50.229Z,39.12
2019-03-06T11:42:17.462Z,38.61
2019-03-06T11:44:44.272Z,39.02
2019-03-06T11:47:12.132Z,39.20
2019-03-06T11:49:38.952Z,38.71
2019-03-06T11:52:06.556Z,37.92
2019-03-06T11:54:33.387Z,38.64
2019-03-06T11:57:00.143Z,38.09
2019-03-06T11:59:26.831Z,38.35
2019-03-06T12:01:56.940Z,38.09
2019-03-06T12:04:23.647Z,37.12
2019-03-06T12:06:50.762Z,38.00
2019-03-06T12:09:29.042Z,37.96
2019-03-06T12:11:55.783Z,37.55
2019-03-06T12:14:22.655Z,37.25
2019-03-06T12:16:49.691Z,37.46
2019-03-06T12:19:16.504Z,37.42
2019-03-06T12:21:44.211Z,37.28
2019-03-06T12:24:13.199Z,36.29
2019-03-06T12:26:42.341Z,35.90
2019-03-06T12:29:09.128Z,35.89
2019-03-06T12:31:36.172Z,36.15
2019-03-06T12:34:03.051Z,35.50
2019-03-06T12:36:29.908Z,36.04
2019-03-06T12:38:57.487Z,35.50
2019-03-06T12:41:24.306Z,36.29
2019-03-06T12:43:51.046Z,34.66
2019-03-06T12:46:23.767Z,35.10
2019-03-06T12:49:01.831Z,34.51
2019-03-06T12:51:31.729Z,34.05
2019-03-06T12:53:58.758Z,33.79
2019-03-06T12:56:26.057Z,32.84
2019-03-06T12:58:52.857Z,33.30
2019-03-06T13:01:19.549Z,34.06
2019-03-06T13:03:47.469Z,33.45
2019-03-06T13:06:24.191Z,33.96
2019-03-06T13:08:50.407Z,33.48
2019-03-06T13:11:12.473Z,33.23
2019-03-06T13:13:39.315Z,33.79
2019-03-06T13:16:06.057Z,33.28
2019-03-06T13:18:32.808Z,33.43
2019-03-06T13:21:01.573Z,33.08
2019-03-06T13:23:30.381Z,32.70
2019-03-06T13:25:57.282Z,33.69
2019-03-06T13:28:24.026Z,33.05
2019-03-06T13:30:50.753Z,32.69
2019-03-06T13:33:26.038Z,33.14
2019-03-06T13:35:52.740Z,32.69
2019-03-06T13:38:19.464Z,32.27
2019-03-06T13:40:46.205Z,33.07
2019-03-06T13:43:12.942Z,32.75
2019-03-06T13:45:39.900Z,32.61
2019-03-06T13:48:06.623Z,32.25
2019-03-06T13:50:33.346Z,32.15
2019-03-06T13:53:00.071Z,31.99
2019-03-06T13:55:36.479Z,31.22
2019-03-06T13:58:06.368Z,31.75
2019-03-06T14:00:33.124Z,30.55
2019-03-06T14:02:59.872Z,30.51
2019-03-06T14:05:28.556Z,31.02
2019-03-06T14:07:56.673Z,31.71
2019-03-06T14:10:24.252Z,31.17
2019-03-06T14:12:59.494Z,31.98
2019-03-06T14:15:26.223Z,32.90
2019-03-06T14:17:53.049Z,33.69
2019-03-06T14:20:20.948Z,33.12
2019-03-06T14:22:47.646Z,33.91
2019-03-06T14:25:14.525Z,33.07
2019-03-06T14:27:41.796Z,33.34
2019-03-06T14:30:09.866Z,33.66
2019-03-06T14:32:38.584Z,34.20
2019-03-06T14:35:05.422Z,34.79
2019-03-06T14:37:32.676Z,34.38
2019-03-06T14:40:03.035Z,34.79
2019-03-06T14:42:28.164Z,34.54
2019-03-06T14:44:58.400Z,34.92
2019-03-06T14:47:25.136Z,34.27
2019-03-06T14:49:51.990Z,34.70
2019-03-06T14:52:18.947Z,35.69
2019-03-06T14:54:45.779Z,35.89
2019-03-06T14:57:12.885Z,35.73
2019-03-06T14:59:39.719Z,36.72
2019-03-06T15:02:07.024Z,35.82
2019-03-06T15:04:33.780Z,36.08
2019-03-06T15:07:00.888Z,36.97
2019-03-06T15:09:27.761Z,37.24
2019-03-06T15:11:54.918Z,37.62
2019-03-06T15:14:21.737Z,38.18
2019-03-06T15:16:48.442Z,38.41
2019-03-06T15:19:15.416Z,38.52
2019-03-06T15:21:42.135Z,39.13
2019-03-06T15:24:08.861Z,39.42
2019-03-06T15:26:35.763Z,39.27
2019-03-06T15:29:02.618Z,39.30
2019-03-06T15:31:29.472Z,39.77
2019-03-06T15:33:56.312Z,41.00
2019-03-06T15:36:23.117Z,42.41
2019-03-06T15:38:49.878Z,42.94
2019-03-06T15:41:16.592Z,43.43
2019-03-06T15:43:43.419Z,43.04
2019-03-06T15:46:10.498Z,44.29
2019-03-06T15:48:37.326Z,44.90
2019-03-06T15:51:04.471Z,45.94
2019-03-06T15:53:33.538Z,46.59
2019-03-06T15:56:00.264Z,48.25
2019-03-06T15:58:27.006Z,47.12
2019-03-06T16:00:53.778Z,47.68
2019-03-06T16:03:20.538Z,47.17
2019-03-06T16:05:47.256Z,47.68
2019-03-06T16:08:14.226Z,48.32
2019-03-06T16:10:41.269Z,48.38
2019-03-06T16:13:08.126Z,48.98
2019-03-06T16:15:34.813Z,50.33
2019-03-06T16:18:02.028Z,50.16
2019-03-06T16:20:31.629Z,49.73
2019-03-06T16:22:58.353Z,49.65
2019-03-06T16:25:25.047Z,50.73
2019-03-06T16:27:52.178Z,50.62
2019-03-06T16:30:19.104Z,50.46
2019-03-06T16:32:45.835Z,50.50
2019-03-06T16:35:12.566Z,50.76
2019-03-06T16:37:39.374Z,51.03
2019-03-06T16:40:13.547Z,52.58
2019-03-06T16:42:40.399Z,52.12
2019-03-06T16:45:12.946Z,52.34
2019-03-06T16:47:39.988Z,52.88
2019-03-06T16:50:14.306Z,53.42
2019-03-06T16:52:36.822Z,54.71
2019-03-06T16:55:04.551Z,55.44
2019-03-06T16:57:31.461Z,55.71
2019-03-06T16:59:58.213Z,56.05
2019-03-06T17:02:27.526Z,55.31
2019-03-06T17:04:54.677Z,56.88
2019-03-06T17:07:21.578Z,56.33
2019-03-06T17:09:48.672Z,57.27
2019-03-06T17:12:15.487Z,58.28
2019-03-06T17:14:42.371Z,58.25
2019-03-06T17:17:09.236Z,64.81
2019-03-06T17:19:36.002Z,60.51
2019-03-06T17:22:02.726Z,57.82
2019-03-06T17:24:29.621Z,56.15
2019-03-06T17:27:23.636Z,55.01
2019-03-06T17:29:50.504Z,54.52
2019-03-06T17:32:17.420Z,52.98
2019-03-06T17:34:44.192Z,54.95
2019-03-06T17:37:11.604Z,56.14
2019-03-06T17:39:38.927Z,57.42
2019-03-06T17:42:05.657Z,58.58
2019-03-06T17:44:32.924Z,58.69
2019-03-06T17:46:59.951Z,59.02
2019-03-06T17:49:29.807Z,58.97
2019-03-06T17:51:56.504Z,59.65
2019-03-06T17:54:23.252Z,59.70
2019-03-06T17:56:50.003Z,59.84
2019-03-06T17:59:16.865Z,60.13
2019-03-06T18:01:44.366Z,60.68
2019-03-06T18:04:14.243Z,59.86
2019-03-06T18:06:41.010Z,59.80
2019-03-06T18:09:07.750Z,60.38
2019-03-06T18:11:38.909Z,60.12
2019-03-06T18:14:07.237Z,59.69
2019-03-06T18:16:34.498Z,59.51
2019-03-06T18:19:01.600Z,60.88
2019-03-06T18:21:28.335Z,60.83
2019-03-06T18:23:55.073Z,60.30
2019-03-06T18:26:21.912Z,60.24
2019-03-06T18:28:48.763Z,59.75
2019-03-06T18:31:15.496Z,59.71
2019-03-06T18:33:42.225Z,60.12
2019-03-06T18:36:09.087Z,59.99
2019-03-06T18:38:35.822Z,60.09
2019-03-06T18:41:02.671Z,59.57
2019-03-06T18:43:29.411Z,59.46
2019-03-06T18:45:59.018Z,59.66
2019-03-06T18:48:28.613Z,59.84
2019-03-06T18:50:55.337Z,59.87
2019-03-06T18:53:22.725Z,60.16
2019-03-06T18:55:49.766Z,60.31
2019-03-06T18:58:18.289Z,60.07
2019-03-06T19:00:45.404Z,60.09
2019-03-06T19:03:12.228Z,60.81
2019-03-06T19:05:40.970Z,60.42
2019-03-06T19:08:08.155Z,60.77
2019-03-06T19:10:34.997Z,60.68
2019-03-06T19:13:01.778Z,61.29
2019-03-06T19:15:28.771Z,61.57
2019-03-06T19:17:55.520Z,61.61
2019-03-06T19:20:22.349Z,61.50
2019-03-06T19:22:49.682Z,61.81
2019-03-06T19:25:16.664Z,62.29
2019-03-06T19:27:43.517Z,62.37
2019-03-06T19:30:21.409Z,62.62
2019-03-06T19:32:50.957Z,63.25
2019-03-06T19:35:18.637Z,63.45
2019-03-06T19:37:45.354Z,63.79
2019-03-06T19:40:12.812Z,63.80
2019-03-06T19:42:39.731Z,64.68
2019-03-06T19:45:07.213Z,65.84
2019-03-06T19:47:33.945Z,66.94
2019-03-06T19:50:00.663Z,67.56
2019-03-06T19:52:27.364Z,68.13
2019-03-06T19:54:54.117Z,68.23
2019-03-06T19:57:20.835Z,68.29
2019-03-06T19:59:49.268Z,67.65
2019-03-06T20:02:16.238Z,67.48
2019-03-06T20:04:43.381Z,67.97
2019-03-06T20:07:10.098Z,69.05
2019-03-06T20:09:36.829Z,68.86
2019-03-06T20:12:08.685Z,68.21
2019-03-06T20:14:35.576Z,68.22
2019-03-06T20:17:02.304Z,65.07
2019-03-06T20:19:29.843Z,63.65
2019-03-06T20:21:59.285Z,63.03
2019-03-06T20:24:26.071Z,60.70
2019-03-06T20:26:52.908Z,60.73
2019-03-06T20:29:19.625Z,62.31
2019-03-06T20:31:46.481Z,64.32
2019-03-06T20:34:13.203Z,64.92
2019-03-06T20:36:39.915Z,63.64
2019-03-06T20:39:06.920Z,64.45
2019-03-06T20:41:33.626Z,63.57
2019-03-06T20:44:00.325Z,62.43
2019-03-06T20:46:27.150Z,62.30
2019-03-06T20:48:54.121Z,63.29
2019-03-06T20:51:21.233Z,63.48
2019-03-06T20:53:47.946Z,63.89
2019-03-06T20:56:15.253Z,64.05
2019-03-06T20:58:41.946Z,64.03
2019-03-06T21:01:08.682Z,64.82
2019-03-06T21:03:35.752Z,63.92
2019-03-06T21:06:02.517Z,63.49
2019-03-06T21:08:30.325Z,63.76
2019-03-06T21:10:57.170Z,63.88
2019-03-06T21:13:23.916Z,64.34
2019-03-06T21:15:50.666Z,63.71
2019-03-06T21:18:17.383Z,63.52
2019-03-06T21:20:44.371Z,64.30
2019-03-06T21:23:13.741Z,64.60
2019-03-06T21:25:40.507Z,66.04
2019-03-06T21:28:07.675Z,66.66
2019-03-06T21:30:36.621Z,65.92
2019-03-06T21:33:03.396Z,65.93
2019-03-06T21:35:30.223Z,67.78
2019-03-06T21:37:56.948Z,66.45
2019-03-06T21:40:24.677Z,67.03
2019-03-06T21:42:53.334Z,68.93
2019-03-06T21:45:20.065Z,69.89
2019-03-06T21:47:46.862Z,70.40
2019-03-06T21:50:16.993Z,70.37
2019-03-06T21:52:45.387Z,70.18
2019-03-06T21:55:12.423Z,72.00
2019-03-06T21:57:39.393Z,71.82
2019-03-06T22:00:09.763Z,72.44
2019-03-06T22:02:36.564Z,72.56
2019-03-06T22:05:04.536Z,72.51
2019-03-06T22:07:31.639Z,73.35
2019-03-06T22:09:59.567Z,74.40
2019-03-06T22:12:27.090Z,74.80
2019-03-06T22:14:54.360Z,74.49
2019-03-06T22:17:26.566Z,74.60
2019-03-06T22:19:56.156Z,74.70
2019-03-06T22:22:24.224Z,74.81
2019-03-06T22:24:56.556Z,75.13
2019-03-06T22:27:49.885Z,74.36
2019-03-06T22:34:39.602Z,74.82
2019-03-06T22:37:08.976Z,75.36
2019-03-06T22:39:36.502Z,75.79
2019-03-06T22:42:06.020Z,75.92
2019-03-06T22:44:33.861Z,76.25
2019-03-06T22:47:02.784Z,76.42
2019-03-06T22:49:29.706Z,74.73
2019-03-06T22:52:09.862Z,74.74
2019-03-06T22:54:41.289Z,74.41
2019-03-06T22:57:11.789Z,74.58
2019-03-06T22:59:41.955Z,75.50
2019-03-06T23:02:12.214Z,75.66
2019-03-06T23:04:39.451Z,73.31
2019-03-06T23:07:06.285Z,70.98
2019-03-06T23:09:33.422Z,71.23
2019-03-06T23:12:00.218Z,71.03
2019-03-06T23:14:27.012Z,69.64
2019-03-06T23:16:54.101Z,68.24
2019-03-06T23:19:21.062Z,68.40
2019-03-06T23:21:47.840Z,69.07
2019-03-06T23:24:15.002Z,68.33
2019-03-06T23:26:43.190Z,68.08
2019-03-06T23:29:10.364Z,67.76
2019-03-06T23:31:37.966Z,67.24
2019-03-06T23:34:04.811Z,67.63
2019-03-06T23:36:33.366Z,68.11
2019-03-06T23:39:00.278Z,66.84
2019-03-06T23:41:27.209Z,66.33
2019-03-06T23:43:56.500Z,66.98
2019-03-06T23:46:26.247Z,65.93
2019-03-06T23:48:53.346Z,66.25
2019-03-06T23:51:25.601Z,66.86
2019-03-06T23:53:53.884Z,66.46
2019-03-06T23:56:32.054Z,66.97
2019-03-06T23:59:40.986Z,66.90
